Time;durP1;ratioP1;P1;durP2;ratioP2;P2;SDS_P1;SDS_P2;PMS_P1;PMS_P2;Temp;Humidity;BMP_temperature;BMP_pressure;BME280_temperature;BME280_humidity;BME280_pressure;Samples;Min_cycle;Max_cycle;Signal;HPM_P1;HPM_P2
2021/11/02 00:00:11;;;;;;;;;2.33;1.00;;;;;12.25;69.64;99744.09;5037121;28;45500;-75
2021/11/02 00:02:37;;;;;;;;;0.33;0.33;;;;;12.23;69.53;99746.78;5038142;28;46613;-74
2021/11/02 00:05:02;;;;;;;;;1.00;0.00;;;;;12.23;69.19;99744.13;5038079;28;54586;-74
2021/11/02 00:07:28;;;;;;;;;1.67;0.00;;;;;12.23;69.57;99744.13;5038959;28;45425;-75
2021/11/02 00:09:55;;;;;;;;;2.00;0.67;;;;;12.24;69.81;99747.66;5038825;28;45495;-75
2021/11/02 00:12:24;;;;;;;;;2.67;0.00;;;;;12.18;69.64;99734.50;5036998;28;46629;-74
2021/11/02 00:14:49;;;;;;;;;2.00;1.00;;;;;12.21;69.65;99732.72;5022609;28;45427;-75
2021/11/02 00:17:23;;;;;;;;;2.33;1.00;;;;;12.22;69.58;99734.44;5035159;28;45766;-75
2021/11/02 00:19:51;;;;;;;;;0.00;0.00;;;;;12.18;69.53;99738.03;5031725;28;46032;-75
2021/11/02 00:22:17;;;;;;;;;1.00;0.00;;;;;12.17;69.62;99736.28;5033134;28;47360;-75
2021/11/02 00:24:57;;;;;;;;;2.00;0.00;;;;;12.15;69.82;99732.78;5038523;28;45333;-74
2021/11/02 00:27:25;;;;;;;;;0.00;0.00;;;;;12.17;69.55;99732.75;5037617;28;45353;-75
2021/11/02 00:29:53;;;;;;;;;2.00;1.00;;;;;12.19;69.72;99733.59;5038662;28;45342;-75
2021/11/02 00:32:19;;;;;;;;;0.00;0.00;;;;;12.20;70.00;99728.31;5037897;28;46705;-74
2021/11/02 00:34:44;;;;;;;;;3.33;0.67;;;;;12.20;69.76;99727.44;5038494;28;45203;-74
2021/11/02 00:37:09;;;;;;;;;1.00;1.00;;;;;12.19;69.72;99730.97;5038312;28;45341;-75
2021/11/02 00:39:35;;;;;;;;;3.67;0.00;;;;;12.13;69.80;99723.97;5038218;28;45405;-74
2021/11/02 00:42:01;;;;;;;;;0.00;0.00;;;;;12.11;69.88;99714.31;5037455;28;47367;-74
2021/11/02 00:44:26;;;;;;;;;0.00;0.00;;;;;12.07;70.08;99717.00;5036849;28;45406;-75
2021/11/02 00:46:52;;;;;;;;;1.33;0.33;;;;;12.05;70.25;99721.44;5038071;28;45345;-75
2021/11/02 00:49:18;;;;;;;;;0.00;0.00;;;;;12.04;70.10;99717.06;5038180;28;45376;-74
2021/11/02 00:51:44;;;;;;;;;1.00;0.00;;;;;12.04;70.47;99714.41;5037839;28;46567;-73
2021/11/02 00:54:10;;;;;;;;;1.00;1.00;;;;;12.03;70.40;99711.75;5038057;28;45316;-74
2021/11/02 00:56:36;;;;;;;;;1.00;0.00;;;;;12.02;70.31;99700.31;5037772;28;45339;-74
2021/11/02 00:59:01;;;;;;;;;1.00;0.33;;;;;12.01;70.34;99709.16;5038093;28;45462;-74
2021/11/02 01:01:26;;;;;;;;;1.67;0.00;;;;;11.96;70.45;99702.16;5037758;28;46239;-75
2021/11/02 01:03:52;;;;;;;;;1.00;1.00;;;;;11.97;70.50;99702.13;5037559;28;45343;-74
2021/11/02 01:06:17;;;;;;;;;1.00;1.00;;;;;11.94;70.56;99694.25;5037809;28;46346;-74
2021/11/02 01:08:43;;;;;;;;;2.00;0.00;;;;;11.94;70.66;99704.84;5037744;28;45139;-74
2021/11/02 01:11:08;;;;;;;;;2.00;0.00;;;;;11.95;70.77;99705.72;5037383;28;46531;-74
2021/11/02 01:13:34;;;;;;;;;1.00;1.00;;;;;11.94;70.76;99702.19;5036224;28;45299;-74
2021/11/02 01:15:59;;;;;;;;;0.00;0.00;;;;;11.93;70.85;99699.53;5018974;28;45179;-73
2021/11/02 01:18:24;;;;;;;;;0.00;0.00;;;;;11.93;70.81;99699.53;5028290;28;45199;-75
2021/11/02 01:20:50;;;;;;;;;0.00;0.00;;;;;11.92;70.97;99701.31;5033610;28;50975;-74
2021/11/02 01:23:15;;;;;;;;;2.00;0.00;;;;;11.91;70.88;99704.84;5033466;28;45376;-75
2021/11/02 01:25:41;;;;;;;;;1.33;0.00;;;;;11.88;70.84;99696.97;5037783;28;45329;-74
2021/11/02 01:28:06;;;;;;;;;0.67;0.00;;;;;11.87;70.76;99702.28;5032399;28;46076;-74
2021/11/02 01:30:32;;;;;;;;;0.67;0.00;;;;;11.87;71.01;99696.97;5037222;28;46064;-75
2021/11/02 01:32:57;;;;;;;;;0.00;0.00;;;;;11.87;71.00;99697.84;5037101;28;45328;-74
2021/11/02 01:35:23;;;;;;;;;0.00;0.00;;;;;11.85;71.04;99696.13;5035988;28;45410;-72
2021/11/02 01:37:48;;;;;;;;;3.00;0.33;;;;;11.85;70.93;99691.72;5037041;28;45544;-74
2021/11/02 01:40:16;;;;;;;;;0.00;0.00;;;;;11.82;70.98;99686.44;5037147;28;46104;-75
2021/11/02 01:42:42;;;;;;;;;0.00;0.00;;;;;11.80;70.90;99691.75;5030458;28;45253;-74
2021/11/02 01:45:09;;;;;;;;;1.00;0.00;;;;;11.77;70.93;99691.78;5033228;28;45266;-74
2021/11/02 01:47:35;;;;;;;;;2.67;0.00;;;;;11.76;71.04;99691.78;5019603;28;45159;-75
2021/11/02 01:50:01;;;;;;;;;1.67;0.67;;;;;11.74;71.35;99693.59;5017581;28;46615;-75
2021/11/02 01:52:27;;;;;;;;;0.67;0.67;;;;;11.72;71.32;99688.31;5033058;28;45591;-74
2021/11/02 01:54:53;;;;;;;;;0.33;0.33;;;;;11.67;71.25;99681.34;5036439;28;45375;-74
2021/11/02 01:57:18;;;;;;;;;2.67;0.00;;;;;11.77;71.47;99686.50;5036776;28;45491;-75
2021/11/02 01:59:44;;;;;;;;;0.00;0.00;;;;;11.78;71.38;99687.38;5036763;28;45742;-75
2021/11/02 02:02:21;;;;;;;;;2.00;0.00;;;;;11.84;71.32;99687.31;5036740;28;45635;-75
2021/11/02 02:05:08;;;;;;;;;1.00;1.00;;;;;11.87;71.44;99692.56;5036663;28;45333;-75
2021/11/02 02:07:38;;;;;;;;;2.33;1.00;;;;;11.90;71.37;99696.97;5037061;28;45144;-73
2021/11/02 02:10:26;;;;;;;;;3.67;0.33;;;;;11.90;71.08;99678.44;5034947;28;46337;-75
2021/11/02 02:13:15;;;;;;;;;3.33;1.00;;;;;11.90;71.14;99689.88;5033547;28;45363;-75
2021/11/02 02:15:50;;;;;;;;;3.67;1.00;;;;;11.91;71.37;99686.34;5023649;28;45563;-74
2021/11/02 02:18:31;;;;;;;;;1.00;1.00;;;;;11.95;71.39;99685.41;5012060;28;45347;-75
2021/11/02 02:21:15;;;;;;;;;0.67;0.67;;;;;11.99;71.31;99691.56;5013823;28;47486;-74
2021/11/02 02:24:03;;;;;;;;;2.00;0.67;;;;;11.97;71.25;99694.19;5034510;28;45542;-74
2021/11/02 02:26:34;;;;;;;;;1.00;1.00;;;;;11.95;70.99;99696.00;5008148;28;45498;-73
2021/11/02 02:29:03;;;;;;;;;1.00;0.00;;;;;11.92;71.11;99696.03;5018353;28;45548;-75
2021/11/02 02:31:30;;;;;;;;;1.00;0.00;;;;;11.91;71.00;99689.00;5036314;28;46747;-75
2021/11/02 02:33:55;;;;;;;;;0.00;0.00;;;;;11.92;71.30;99692.50;5034417;28;45557;-73
2021/11/02 02:36:21;;;;;;;;;3.67;0.00;;;;;11.90;71.16;99692.53;5035109;28;45687;-75
2021/11/02 02:38:46;;;;;;;;;1.67;0.67;;;;;11.83;71.01;99676.78;5035004;28;45548;-74
2021/11/02 02:41:12;;;;;;;;;0.33;0.33;;;;;11.86;71.01;99688.16;5034899;28;47413;-74
2021/11/02 02:43:40;;;;;;;;;1.67;0.33;;;;;11.84;71.22;99684.69;5028306;28;48596;-74
2021/11/02 02:46:06;;;;;;;;;0.67;0.67;;;;;11.83;70.99;99680.28;5002260;28;45367;-75
2021/11/02 02:48:31;;;;;;;;;0.00;0.00;;;;;11.81;71.06;99676.75;5035442;28;45515;-74
2021/11/02 02:50:57;;;;;;;;;1.00;1.00;;;;;11.82;71.13;99672.34;5017923;28;46224;-75
2021/11/02 02:53:23;;;;;;;;;0.00;0.00;;;;;11.86;71.30;99680.25;5019782;28;45227;-74
2021/11/02 02:55:49;;;;;;;;;0.00;0.00;;;;;11.90;71.13;99667.84;5034780;28;45433;-74
2021/11/02 02:58:14;;;;;;;;;1.00;1.00;;;;;11.94;71.13;99673.09;5034775;28;45448;-75
2021/11/02 03:00:40;;;;;;;;;1.67;1.00;;;;;11.97;71.13;99673.03;5034254;28;57379;-74
2021/11/02 03:03:05;;;;;;;;;1.00;1.00;;;;;11.99;70.88;99660.69;5035828;28;45347;-75
2021/11/02 03:05:31;;;;;;;;;0.33;0.00;;;;;11.98;70.77;99656.25;5017924;28;48292;-74
2021/11/02 03:07:56;;;;;;;;;2.33;0.00;;;;;12.01;70.65;99664.16;5037613;28;45531;-75
2021/11/02 03:10:22;;;;;;;;;1.00;1.00;;;;;11.96;70.91;99657.19;5037854;28;46414;-74
2021/11/02 03:12:50;;;;;;;;;0.00;0.00;;;;;12.01;70.76;99658.88;5035596;28;45321;-74
2021/11/02 03:18:47;;;;;;;;;0.00;0.00;;;;;12.01;70.80;99652.72;5018487;28;45418;-75
2021/11/02 03:56:24;;;;;;;;;1.00;1.00;;;;;11.96;71.11;99679.22;5038569;28;45271;-75
2021/11/02 04:01:29;;;;;;;;;2.00;1.00;;;;;11.96;70.96;99676.56;5021333;28;45764;-73
2021/11/02 04:28:36;;;;;;;;;1.33;1.00;;;;;11.77;71.68;99678.56;5038504;28;45303;-75
2021/11/02 04:42:43;;;;;;;;;2.67;0.00;;;;;11.84;71.41;99686.47;5034349;28;45229;-75
2021/11/02 05:48:07;;;;;;;;;1.67;1.00;;;;;11.94;70.52;99696.03;5037497;28;45461;-74
2021/11/02 05:51:01;;;;;;;;;0.33;0.33;;;;;11.94;70.57;99715.41;5037300;28;46020;-75
2021/11/02 05:53:54;;;;;;;;;3.00;1.00;;;;;11.92;70.18;99711.03;5036843;28;46732;-74
2021/11/02 05:57:15;;;;;;;;;3.33;1.00;;;;;11.89;70.63;99705.78;5036486;28;45321;-74
2021/11/02 06:06:43;;;;;;;;;1.00;0.00;;;;;11.74;70.54;99704.16;5028148;28;45527;-74
2021/11/02 06:09:58;;;;;;;;;2.00;0.00;;;;;11.71;70.51;99705.06;5015215;28;45390;-74
2021/11/02 06:28:57;;;;;;;;;2.00;1.00;;;;;11.79;70.16;99715.56;5016711;28;45568;-74
2021/11/02 06:34:43;;;;;;;;;3.33;1.00;;;;;11.79;69.88;99726.16;5033892;28;45240;-74
2021/11/02 06:52:43;;;;;;;;;1.00;1.00;;;;;11.67;69.43;99740.38;5018429;28;45469;-75
2021/11/02 08:47:42;;;;;;;;;1.00;1.00;;;;;11.55;69.46;99836.53;5006228;28;45602;-72
2021/11/02 08:50:11;;;;;;;;;4.00;1.00;;;;;11.58;69.38;99833.00;5018550;28;45408;-72
2021/11/02 08:52:37;;;;;;;;;2.33;1.00;;;;;11.61;69.47;99835.66;5018609;28;45472;-72
2021/11/02 08:55:06;;;;;;;;;2.00;1.00;;;;;11.63;69.51;99831.22;5018723;28;45326;-73
2021/11/02 08:57:32;;;;;;;;;2.33;0.00;;;;;11.62;69.41;99834.75;5018241;28;46324;-72
2021/11/02 08:59:58;;;;;;;;;1.33;0.00;;;;;11.68;68.99;99839.97;5018427;28;45490;-72
2021/11/02 09:02:26;;;;;;;;;1.00;1.00;;;;;11.69;69.14;99847.00;5018365;28;45314;-72
2021/11/02 09:04:54;;;;;;;;;1.00;1.00;;;;;11.72;68.46;99846.13;5018300;28;45497;-72
2021/11/02 09:07:20;;;;;;;;;0.33;0.33;;;;;11.65;68.83;99837.34;5030097;28;46227;-72
2021/11/02 09:09:49;;;;;;;;;0.00;0.00;;;;;11.72;68.18;99852.28;5016953;28;45371;-72
2021/11/02 09:12:15;;;;;;;;;1.00;1.00;;;;;11.65;68.04;99839.13;5018079;28;45459;-72
2021/11/02 09:14:40;;;;;;;;;1.00;0.00;;;;;11.67;68.18;99859.38;5018022;28;45408;-72
2021/11/02 09:17:07;;;;;;;;;0.67;0.00;;;;;11.66;67.95;99846.16;5017680;28;47095;-72
2021/11/02 09:19:35;;;;;;;;;0.00;0.00;;;;;11.67;67.83;99845.28;5018297;28;45283;-72
2021/11/02 09:22:02;;;;;;;;;0.00;0.00;;;;;11.63;67.81;99841.78;5017965;28;45268;-72
2021/11/02 09:24:27;;;;;;;;;2.33;0.00;;;;;11.67;67.75;99845.28;5018265;28;45453;-72
2021/11/02 09:26:52;;;;;;;;;1.00;0.00;;;;;11.69;67.53;99848.78;5016418;28;45769;-72
2021/11/02 09:29:19;;;;;;;;;0.33;0.33;;;;;11.68;67.20;99839.97;5017832;28;50977;-72
2021/11/02 09:31:45;;;;;;;;;0.00;0.00;;;;;11.65;67.38;99828.53;5017946;28;45330;-71
2021/11/02 09:34:11;;;;;;;;;0.00;0.00;;;;;11.71;67.63;99841.69;5018083;28;45306;-72
2021/11/02 09:36:45;;;;;;;;;0.00;0.00;;;;;11.75;67.34;99846.06;5017758;28;46773;-72
2021/11/02 09:39:12;;;;;;;;;0.00;0.00;;;;;11.75;67.30;99857.53;5017744;28;45385;-73
2021/11/02 09:41:59;;;;;;;;;0.00;0.00;;;;;11.76;66.91;99856.63;5017621;28;45335;-72
2021/11/02 09:44:36;;;;;;;;;2.00;1.00;;;;;11.78;67.10;99852.22;5017732;28;45531;-72
2021/11/02 09:47:29;;;;;;;;;0.00;0.00;;;;;11.83;67.13;99854.84;5017528;28;45361;-72
2021/11/02 09:49:57;;;;;;;;;1.67;1.67;;;;;11.86;66.93;99854.81;5017597;28;46011;-72
2021/11/02 09:52:52;;;;;;;;;2.00;1.00;;;;;11.92;66.91;99851.22;5017516;28;45330;-72
2021/11/02 09:55:55;;;;;;;;;1.00;1.00;;;;;11.99;66.67;99858.22;4991288;28;45784;-72
2021/11/02 09:58:48;;;;;;;;;1.00;1.00;;;;;12.05;66.86;99858.16;5015998;28;47355;-72
2021/11/02 10:01:58;;;;;;;;;2.00;0.00;;;;;12.04;65.85;99859.94;5017397;28;45367;-72
2021/11/02 10:04:42;;;;;;;;;0.33;0.00;;;;;12.03;66.75;99855.50;5001849;28;45485;-72
2021/11/02 10:07:56;;;;;;;;;3.33;1.00;;;;;12.11;66.92;99858.09;5030741;28;45633;-73
2021/11/02 10:10:25;;;;;;;;;2.67;0.33;;;;;12.13;67.11;99864.22;5017170;28;45475;-72
2021/11/02 10:13:05;;;;;;;;;2.00;0.00;;;;;12.18;66.65;99858.88;5016926;28;45358;-73
2021/11/02 10:15:50;;;;;;;;;0.67;0.67;;;;;12.23;67.04;99857.06;5016686;28;45393;-72
2021/11/02 10:18:43;;;;;;;;;1.00;1.00;;;;;12.31;66.84;99868.47;5000173;28;45317;-72
2021/11/02 10:21:40;;;;;;;;;0.67;0.67;;;;;12.27;66.78;99848.19;5017422;28;46137;-72
2021/11/02 10:24:43;;;;;;;;;0.00;0.00;;;;;12.41;66.49;99880.69;5016060;28;46127;-72
2021/11/02 10:27:30;;;;;;;;;0.00;0.00;;;;;12.45;66.43;99874.44;5016992;28;45320;-72
2021/11/02 10:30:24;;;;;;;;;0.00;0.00;;;;;12.50;66.18;99875.25;5017121;28;45292;-73
2021/11/02 10:32:50;;;;;;;;;0.00;0.00;;;;;12.52;65.93;99886.72;5016375;28;46855;-73
2021/11/02 10:35:21;;;;;;;;;0.00;0.00;;;;;12.54;65.28;99882.28;4999329;28;45280;-72
2021/11/02 10:37:55;;;;;;;;;0.67;0.67;;;;;12.59;65.75;99880.47;5016866;28;45357;-72
2021/11/02 10:40:23;;;;;;;;;2.67;0.33;;;;;12.64;66.08;99882.19;5017110;28;45551;-73
2021/11/02 10:42:55;;;;;;;;;1.00;1.00;;;;;12.69;65.88;99877.69;5016469;28;46801;-72
2021/11/02 10:45:24;;;;;;;;;1.00;0.00;;;;;12.81;66.35;99872.22;5016906;28;45312;-72
2021/11/02 10:48:09;;;;;;;;;0.00;0.00;;;;;13.05;65.82;99876.31;5016839;28;45574;-72
2021/11/02 10:50:38;;;;;;;;;1.00;1.00;;;;;13.32;64.84;99880.38;5016817;28;45511;-72
2021/11/02 10:53:08;;;;;;;;;1.00;1.00;;;;;13.50;64.58;99868.59;5015199;28;46548;-72
2021/11/02 10:55:56;;;;;;;;;0.00;0.00;;;;;13.71;64.37;99884.13;5016568;28;45231;-72
2021/11/02 10:58:51;;;;;;;;;0.00;0.00;;;;;13.68;63.91;99859.44;5015538;28;45365;-72
2021/11/02 11:01:16;;;;;;;;;1.33;1.00;;;;;13.73;63.82;99870.84;5016826;28;45381;-72
2021/11/02 11:03:42;;;;;;;;;0.00;0.00;;;;;13.69;62.51;99859.44;5016439;28;47161;-72
2021/11/02 11:06:12;;;;;;;;;0.00;0.00;;;;;13.68;62.84;99868.25;5022152;28;45244;-73
2021/11/02 11:08:42;;;;;;;;;2.00;0.00;;;;;13.68;63.38;99870.03;5023274;28;45401;-73
2021/11/02 11:11:18;;;;;;;;;2.00;1.00;;;;;13.61;63.97;99869.28;5016560;28;45535;-72
2021/11/02 11:13:47;;;;;;;;;1.00;1.00;;;;;13.60;62.99;99872.84;5117043;22;48496;-72
2021/11/02 11:16:16;;;;;;;;;1.00;0.00;;;;;13.54;62.47;99867.66;5039623;28;45295;-72
2021/11/02 11:18:56;;;;;;;;;2.00;0.33;;;;;13.50;63.47;99871.25;5035893;28;45405;-72
2021/11/02 11:21:23;;;;;;;;;0.33;0.33;;;;;13.36;63.57;99848.44;5039847;28;45307;-72
2021/11/02 11:23:55;;;;;;;;;0.33;0.00;;;;;13.44;62.73;99858.09;5035996;28;45859;-73
2021/11/02 11:26:22;;;;;;;;;1.67;0.00;;;;;13.43;62.94;99861.63;5018596;28;45351;-72
2021/11/02 11:28:47;;;;;;;;;0.00;0.00;;;;;13.41;63.32;99853.69;5025513;28;45387;-72
2021/11/02 11:31:15;;;;;;;;;0.00;0.00;;;;;13.36;62.62;99852.88;5005360;28;45284;-72
2021/11/02 11:33:41;;;;;;;;;0.00;0.00;;;;;13.38;63.02;99856.41;5005588;28;47145;-73
2021/11/02 11:36:06;;;;;;;;;0.00;0.00;;;;;13.39;63.17;99836.06;5021704;28;45414;-72
2021/11/02 11:38:37;;;;;;;;;0.00;0.00;;;;;13.45;63.25;99847.44;5039713;28;45238;-72
2021/11/02 11:41:07;;;;;;;;;0.00;0.00;;;;;13.42;62.11;99839.53;5022076;28;45432;-72
2021/11/02 11:43:33;;;;;;;;;1.00;0.67;;;;;13.45;63.37;99847.44;5041248;28;46472;-72
2021/11/02 11:46:00;;;;;;;;;0.00;0.00;;;;;13.43;63.01;99851.91;5043627;28;45460;-72
2021/11/02 11:48:26;;;;;;;;;0.00;0.00;;;;;13.42;63.34;99855.44;5039569;28;45458;-72
2021/11/02 11:50:52;;;;;;;;;2.00;0.00;;;;;13.41;62.53;99845.72;5039502;28;45332;-72
2021/11/02 11:53:18;;;;;;;;;0.00;0.00;;;;;13.40;62.59;99846.63;5039310;28;46024;-73
2021/11/02 11:55:46;;;;;;;;;2.00;1.00;;;;;13.38;62.69;99836.97;5038949;28;45254;-72
2021/11/02 11:58:16;;;;;;;;;2.00;1.00;;;;;13.29;62.62;99825.59;5039401;28;45473;-72
2021/11/02 12:00:46;;;;;;;;;0.00;0.00;;;;;13.41;62.68;99835.13;5039145;28;45206;-72
2021/11/02 12:03:36;;;;;;;;;1.33;1.00;;;;;13.45;62.95;99831.53;5039397;28;46588;-73
2021/11/02 12:06:21;;;;;;;;;2.67;1.00;;;;;13.49;62.88;99837.66;5021276;28;45481;-73
2021/11/02 12:09:14;;;;;;;;;0.00;0.00;;;;;13.53;62.79;99837.59;5039222;28;45306;-72
2021/11/02 12:11:41;;;;;;;;;0.67;0.00;;;;;13.56;62.44;99829.56;5021472;28;45456;-72
2021/11/02 12:14:08;;;;;;;;;0.00;0.00;;;;;13.57;62.44;99817.19;5004170;28;47163;-72
2021/11/02 12:16:41;;;;;;;;;1.00;1.00;;;;;13.56;62.10;99818.97;5038746;28;45295;-72
2021/11/02 12:19:44;;;;;;;;;2.33;0.00;;;;;13.64;61.81;99813.53;5038983;28;45241;-73
2021/11/02 12:22:17;;;;;;;;;0.00;0.00;;;;;13.68;61.90;99812.56;5033381;28;45395;-72
2021/11/02 12:24:43;;;;;;;;;1.00;1.00;;;;;13.87;62.26;99816.63;5038773;28;45710;-73
2021/11/02 12:27:20;;;;;;;;;0.00;0.00;;;;;14.07;61.29;99803.00;5038396;28;50469;-72
2021/11/02 12:29:47;;;;;;;;;2.00;1.00;;;;;14.22;61.34;99806.22;5038869;28;45843;-72
2021/11/02 12:32:14;;;;;;;;;2.00;0.67;;;;;14.32;61.36;99794.50;5039018;28;45212;-72
2021/11/02 12:34:47;;;;;;;;;0.33;0.00;;;;;14.50;60.73;99804.78;5038460;28;47488;-72
2021/11/02 12:37:16;;;;;;;;;0.00;0.00;;;;;14.58;60.46;99794.84;5038435;28;45290;-72
2021/11/02 12:39:42;;;;;;;;;1.00;1.00;;;;;14.67;60.04;99801.75;5039439;28;45379;-72
2021/11/02 12:42:07;;;;;;;;;1.00;1.00;;;;;14.60;59.70;99795.72;5033256;28;45350;-73
2021/11/02 12:44:34;;;;;;;;;1.00;1.00;;;;;14.57;60.28;99795.78;5005383;28;46464;-73
2021/11/02 12:47:07;;;;;;;;;3.00;2.00;;;;;14.58;60.80;99793.97;5038273;28;45374;-72
2021/11/02 12:49:55;;;;;;;;;0.00;0.00;;;;;14.72;60.64;99797.22;5020647;28;45377;-72
2021/11/02 12:52:24;;;;;;;;;0.00;0.00;;;;;14.75;60.23;99790.94;5038355;28;45366;-72
2021/11/02 12:55:12;;;;;;;;;0.00;0.00;;;;;14.73;60.07;99784.81;5005265;28;46060;-72
2021/11/02 12:57:47;;;;;;;;;0.00;0.00;;;;;14.66;60.17;99774.31;5037859;28;45330;-72
2021/11/02 13:00:27;;;;;;;;;1.33;0.00;;;;;14.58;59.13;99789.53;5040770;28;45329;-72
2021/11/02 13:03:04;;;;;;;;;1.00;0.00;;;;;14.55;59.88;99779.00;5014435;28;45305;-72
2021/11/02 13:05:35;;;;;;;;;0.00;0.00;;;;;14.63;59.53;99785.00;5020932;28;45992;-72
2021/11/02 13:08:03;;;;;;;;;0.00;0.00;;;;;14.66;59.99;99778.75;5036903;28;45345;-72
2021/11/02 13:10:31;;;;;;;;;0.00;0.00;;;;;14.67;60.02;99770.75;5020778;28;45391;-72
2021/11/02 13:13:09;;;;;;;;;0.00;0.00;;;;;14.75;59.53;99775.88;5038241;28;45437;-72
2021/11/02 13:15:47;;;;;;;;;0.00;0.00;;;;;14.84;59.52;99778.31;5023305;28;45464;-73
2021/11/02 13:18:33;;;;;;;;;1.00;0.00;;;;;14.89;59.05;99762.28;5039151;28;45343;-72
2021/11/02 13:21:30;;;;;;;;;0.00;0.00;;;;;14.93;58.28;99780.78;5040327;28;45385;-72
2021/11/02 13:23:57;;;;;;;;;0.00;0.00;;;;;14.88;58.68;99785.31;5037336;28;45549;-73
2021/11/02 13:26:23;;;;;;;;;0.00;0.00;;;;;14.83;58.61;99789.00;5037545;28;46891;-72
2021/11/02 13:28:49;;;;;;;;;0.00;0.00;;;;;14.73;58.39;99780.34;5037454;28;45377;-72
2021/11/02 13:31:30;;;;;;;;;2.00;1.00;;;;;14.76;58.71;99771.47;5037985;28;45533;-72
2021/11/02 13:33:58;;;;;;;;;1.00;1.00;;;;;14.77;58.76;99776.72;5036045;28;45366;-72
2021/11/02 13:36:23;;;;;;;;;0.00;0.00;;;;;14.74;58.20;99767.94;5037239;28;46705;-72
2021/11/02 13:38:49;;;;;;;;;0.67;0.00;;;;;14.68;58.33;99764.53;5037262;28;45365;-72
2021/11/02 13:41:23;;;;;;;;;0.00;0.00;;;;;14.60;58.60;99747.91;5036738;28;46047;-72
2021/11/02 13:43:50;;;;;;;;;0.00;0.00;;;;;14.58;58.72;99752.34;5041965;28;45533;-72
2021/11/02 13:46:18;;;;;;;;;0.00;0.00;;;;;14.57;59.00;99739.97;5040739;28;46403;-73
2021/11/02 13:48:44;;;;;;;;;0.33;0.00;;;;;14.73;58.23;99748.47;5037530;28;45145;-72
2021/11/02 13:51:11;;;;;;;;;1.00;0.00;;;;;14.82;58.43;99750.06;5036377;28;45259;-72
2021/11/02 13:53:37;;;;;;;;;0.00;0.00;;;;;14.77;58.50;99746.63;5037463;28;45640;-72
2021/11/02 13:56:13;;;;;;;;;0.00;0.00;;;;;14.73;58.77;99750.25;5037293;28;47210;-72
2021/11/02 13:58:39;;;;;;;;;0.00;0.00;;;;;14.68;59.00;99755.69;5037268;28;45392;-73
2021/11/02 14:01:06;;;;;;;;;0.33;0.00;;;;;14.62;58.48;99746.06;5037259;28;45340;-72
2021/11/02 14:03:34;;;;;;;;;2.33;0.00;;;;;14.57;58.27;99753.25;5037462;28;45516;-72
2021/11/02 14:05:59;;;;;;;;;0.00;0.00;;;;;14.49;58.81;99735.75;5019271;28;46645;-72
2021/11/02 14:08:25;;;;;;;;;0.00;0.00;;;;;14.51;58.66;99742.78;5052836;28;45940;-72
2021/11/02 14:10:57;;;;;;;;;0.00;0.00;;;;;14.56;59.10;99746.22;5019501;28;45476;-72
2021/11/02 14:13:45;;;;;;;;;0.00;0.00;;;;;14.64;59.17;99752.19;5037157;28;45377;-72
2021/11/02 14:16:12;;;;;;;;;1.67;0.00;;;;;14.63;58.40;99747.81;5057162;28;47662;-72
2021/11/02 14:18:39;;;;;;;;;0.67;0.00;;;;;14.62;58.36;99740.75;5036671;28;45417;-72
2021/11/02 14:21:05;;;;;;;;;0.00;0.00;;;;;14.58;58.38;99747.03;5042695;28;45314;-72
2021/11/02 14:23:30;;;;;;;;;0.00;0.00;;;;;14.60;58.60;99747.03;5037163;28;45306;-72
2021/11/02 14:26:37;;;;;;;;;0.00;0.00;;;;;14.59;58.49;99751.44;5036857;28;45568;-72
2021/11/02 14:29:02;;;;;;;;;0.00;0.00;;;;;14.59;58.26;99747.91;5036680;28;45248;-72
2021/11/02 14:31:33;;;;;;;;;1.00;1.00;;;;;14.61;58.98;99743.44;5043463;28;45497;-72
2021/11/02 14:33:59;;;;;;;;;0.00;0.00;;;;;14.59;58.46;99748.78;5037066;28;45503;-72
2021/11/02 14:36:40;;;;;;;;;0.00;0.00;;;;;14.58;58.73;99751.47;5036650;28;50658;-73
2021/11/02 14:39:12;;;;;;;;;0.00;0.00;;;;;14.54;59.04;99740.06;5036720;28;45418;-72
2021/11/02 14:41:44;;;;;;;;;0.00;0.00;;;;;14.56;58.03;99746.22;5036132;28;45382;-73
2021/11/02 14:44:28;;;;;;;;;0.00;0.00;;;;;14.58;58.18;99747.03;5040718;28;45362;-72
2021/11/02 14:46:55;;;;;;;;;0.00;0.00;;;;;14.57;57.57;99739.97;5036751;28;46530;-72
2021/11/02 14:49:32;;;;;;;;;0.00;0.00;;;;;14.59;58.88;99742.59;5036384;28;45385;-72
2021/11/02 14:51:58;;;;;;;;;0.67;0.00;;;;;14.59;58.03;99748.78;5036845;28;45227;-73
2021/11/02 14:54:30;;;;;;;;;0.00;0.00;;;;;14.62;58.17;99750.50;5036671;28;45200;-72
2021/11/02 14:56:57;;;;;;;;;1.33;0.67;;;;;14.62;57.85;99748.72;5036433;28;45714;-72
2021/11/02 14:59:22;;;;;;;;;0.00;0.00;;;;;14.58;58.27;99747.03;5036431;28;45241;-72
2021/11/02 15:02:05;;;;;;;;;1.00;1.00;;;;;14.55;58.21;99740.94;5037570;28;45382;-72
2021/11/02 15:04:30;;;;;;;;;0.67;0.67;;;;;14.57;58.46;99757.72;5040116;28;45452;-72
2021/11/02 15:06:57;;;;;;;;;3.00;1.00;;;;;14.47;58.76;99738.44;5039772;28;45381;-72
2021/11/02 15:09:26;;;;;;;;;0.00;0.00;;;;;14.44;58.48;99742.94;5039950;28;45268;-72
2021/11/02 15:11:51;;;;;;;;;1.00;1.00;;;;;14.48;58.17;99747.28;5040180;28;45303;-72
2021/11/02 15:14:18;;;;;;;;;0.67;0.00;;;;;14.49;59.14;99752.56;5039837;28;45466;-72
2021/11/02 15:16:57;;;;;;;;;1.67;1.00;;;;;14.44;58.47;99729.66;5039696;28;46242;-72
2021/11/02 15:19:24;;;;;;;;;0.00;0.00;;;;;14.42;58.25;99737.63;5022261;28;45351;-72
2021/11/02 15:22:01;;;;;;;;;0.00;0.00;;;;;14.40;57.45;99747.44;5043487;28;45195;-73
2021/11/02 15:24:28;;;;;;;;;0.00;0.00;;;;;14.41;58.14;99747.38;5040156;28;45505;-72
2021/11/02 15:26:56;;;;;;;;;0.00;0.00;;;;;14.39;58.14;99738.59;5039614;28;46255;-72
2021/11/02 15:29:23;;;;;;;;;0.67;0.67;;;;;14.37;58.63;99745.69;5039596;28;45370;-72
2021/11/02 15:31:55;;;;;;;;;0.00;0.00;;;;;14.36;58.30;99743.09;5021793;28;45245;-73
2021/11/02 15:34:20;;;;;;;;;0.00;0.00;;;;;14.33;58.97;99733.41;5039746;28;45353;-72
2021/11/02 15:36:46;;;;;;;;;1.00;0.00;;;;;14.33;59.14;99736.06;5039431;28;46465;-72
2021/11/02 15:39:11;;;;;;;;;0.00;0.00;;;;;14.30;58.91;99727.28;5021870;28;45429;-72
2021/11/02 15:41:37;;;;;;;;;2.00;0.00;;;;;14.28;59.06;99735.31;5039466;28;45404;-72
2021/11/02 15:44:05;;;;;;;;;0.67;0.00;;;;;14.20;58.96;99723.94;5021824;28;45279;-73
2021/11/02 15:46:33;;;;;;;;;4.00;0.67;;;;;14.09;59.62;99712.69;5039308;28;46468;-73
2021/11/02 15:48:59;;;;;;;;;1.33;0.00;;;;;14.19;59.26;99731.97;5039416;28;45419;-72
2021/11/02 15:51:28;;;;;;;;;0.00;0.00;;;;;14.15;59.48;99736.44;5039534;28;45333;-72
2021/11/02 15:53:54;;;;;;;;;0.00;0.00;;;;;14.05;59.87;99717.19;5039478;28;45615;-72
2021/11/02 15:56:24;;;;;;;;;0.00;0.00;;;;;14.09;59.30;99724.19;5039122;28;54428;-72
2021/11/02 15:58:59;;;;;;;;;2.00;1.00;;;;;14.08;59.79;99719.78;5038915;28;45437;-72
2021/11/02 16:01:44;;;;;;;;;0.00;0.00;;;;;14.04;59.41;99714.56;5021427;28;45413;-73
2021/11/02 16:04:11;;;;;;;;;0.00;0.00;;;;;14.01;59.64;99719.94;5039318;28;45346;-73
2021/11/02 16:06:52;;;;;;;;;0.00;0.00;;;;;13.98;59.26;99720.88;5039288;28;45566;-72
2021/11/02 16:09:18;;;;;;;;;1.33;0.00;;;;;13.91;59.73;99719.28;5039033;28;45431;-72
2021/11/02 16:11:43;;;;;;;;;1.00;1.00;;;;;13.84;59.74;99721.16;5039238;28;45740;-72
2021/11/02 16:14:09;;;;;;;;;0.67;0.67;;;;;13.78;59.66;99715.97;5020042;28;45496;-73
2021/11/02 16:16:35;;;;;;;;;3.00;0.00;;;;;13.73;60.25;99709.88;5038873;28;46379;-72
2021/11/02 16:19:01;;;;;;;;;2.00;0.00;;;;;13.66;60.69;99716.22;5021069;28;45371;-72
2021/11/02 16:21:32;;;;;;;;;0.00;0.00;;;;;13.53;60.90;99712.03;5025663;28;45494;-72
2021/11/02 16:23:57;;;;;;;;;4.00;1.00;;;;;13.49;61.00;99713.03;5043362;28;45328;-73
2021/11/02 16:26:27;;;;;;;;;1.00;1.00;;;;;13.46;61.47;99713.94;5003871;28;50986;-72
2021/11/02 16:28:58;;;;;;;;;2.67;0.67;;;;;13.40;61.75;99722.00;5038562;28;45296;-72
2021/11/02 16:31:28;;;;;;;;;2.33;0.67;;;;;13.35;61.78;99713.28;5021888;28;45494;-72
2021/11/02 16:33:54;;;;;;;;;2.00;1.00;;;;;13.23;61.75;99702.91;5038870;28;45406;-72
2021/11/02 16:36:23;;;;;;;;;2.67;1.00;;;;;13.26;62.05;99722.28;5038352;28;46564;-72
2021/11/02 16:38:55;;;;;;;;;1.00;1.00;;;;;13.25;62.25;99714.34;5021170;28;45482;-72
2021/11/02 16:41:39;;;;;;;;;1.00;1.00;;;;;13.18;62.34;99705.59;5021629;28;45512;-72
2021/11/02 16:44:08;;;;;;;;;2.00;1.00;;;;;13.16;62.66;99699.47;5045280;28;45810;-73
2021/11/02 16:46:41;;;;;;;;;2.67;0.00;;;;;13.20;62.67;99711.72;5038653;28;45685;-72
2021/11/02 16:49:25;;;;;;;;;1.67;0.33;;;;;13.19;62.90;99714.41;5038372;28;45419;-72